Airfield :
LOGIN :

Register | Disclaimer

   EN    FR    IT 

 










Legend :    VFR   Marginal VFR   IFR   Intensive IFR   Very Intensive IFR
Visi :
Ceiling :
>= 8 km
>= 3000ft
5 to 8 km
1000 to 3000 ft
1500m to 5 km
500 to 1000 ft
800 to 1500m
200 to 500 ft
< 800m
< 200 ft
Symbols :   Thunderstorms  Fog  Heavy snow  Heavy precipitations  Wind > 20 kt
SIGMETs :     Misc.  Thunderstorms  Icing  Turbulence  Mountain Waves  Volcanic Ashes






- Airport Elevation : 1411 ft
- IATA code : GVA


LSGG - Genève Cointrin

CURRENT METAR :
  • 050020Z AUTO 07002KT CAVOK 04/01 Q1021 NOSIG

EXPIRED METARs :
  • 042350Z AUTO 27001KT CAVOK 05/01 Q1021 NOSIG
  • 042320Z AUTO 31002KT CAVOK 05/02 Q1021 NOSIG
  • 042250Z AUTO VRB01KT CAVOK 05/01 Q1021 NOSIG
  • 042220Z AUTO 25002KT CAVOK 06/01 Q1021 NOSIG
  • 042150Z AUTO 30002KT CAVOK 06/01 Q1021 NOSIG

TAF TAF LSGG
Valid from the 05 at 00:00 until the 06 at 06:00 UTC


042325Z 0500/0606 VRB03KT CAVOK TX19/0515Z TN01/0505Z TN03/0605Z
BECMG 0509/0511 05008KT
BECMG 0518/0520 VRB03KT
ATIS : +41 22 417 40 81



MET'MAP, your aeronautical weather chart ! - Copyright ORBIFLY December 2007 - Disclaimer

ORBIFLY MET'MAP TEAM :

Programming & Development : Alexandra Zaïnal
Concept & original design : Baudouin d'Aumeries
Assistance for programming : Marc-Olivier Méhu
Technical & hardware support : Manuel Goepfert

Contact : metmap@orbifly.com




SOURCES & CREDITS :

   NOAA